Time;durP1;ratioP1;P1;durP2;ratioP2;P2;SDS_P1;SDS_P2;PMS_P1;PMS_P2;Temp;Humidity;BMP_temperature;BMP_pressure;BME280_temperature;BME280_humidity;BME280_pressure;Samples;Min_cycle;Max_cycle;Signal;HPM_P1;HPM_P2
2022/07/22 00:01:55;;;;;;;7.23;6.50;;;20.70;99.90;;;;;;10312602;28;20279;-70
2022/07/22 00:06:55;;;;;;;6.90;6.30;;;20.70;99.90;;;;;;10312790;28;20341;-69
2022/07/22 00:11:56;;;;;;;6.90;6.20;;;20.60;99.90;;;;;;10305464;28;20768;-70
2022/07/22 00:16:57;;;;;;;7.43;6.33;;;20.60;99.90;;;;;;10307551;28;20274;-69
2022/07/22 00:21:57;;;;;;;8.90;6.90;;;20.50;99.90;;;;;;10310036;28;20229;-69
2022/07/22 00:26:58;;;;;;;8.10;6.43;;;20.40;99.90;;;;;;10314764;28;20274;-70
2022/07/22 00:31:58;;;;;;;7.33;5.93;;;20.30;99.90;;;;;;10311172;28;20222;-69
2022/07/22 00:36:59;;;;;;;7.40;6.63;;;20.30;99.90;;;;;;10308431;28;20225;-71
2022/07/22 00:42:00;;;;;;;7.07;6.37;;;20.30;99.90;;;;;;10316287;28;20732;-69
2022/07/22 00:47:07;;;;;;;8.00;7.10;;;20.20;99.90;;;;;;10314293;28;20701;-70
2022/07/22 00:52:07;;;;;;;8.40;6.13;;;20.00;99.90;;;;;;10319083;28;20760;-70
2022/07/22 00:57:08;;;;;;;9.60;7.40;;;20.00;99.90;;;;;;10312050;28;20273;-70
2022/07/22 01:02:09;;;;;;;8.33;7.00;;;19.90;99.90;;;;;;10327380;28;20214;-70
2022/07/22 01:07:10;;;;;;;7.77;6.07;;;19.80;99.90;;;;;;10313102;28;20313;-72
2022/07/22 01:12:10;;;;;;;7.67;5.70;;;19.80;99.90;;;;;;10318601;28;20301;-71
2022/07/22 01:17:11;;;;;;;9.43;6.87;;;19.70;99.90;;;;;;10311791;28;20218;-70
2022/07/22 01:22:12;;;;;;;8.33;6.27;;;19.60;99.90;;;;;;10318008;28;20229;-70
2022/07/22 01:27:12;;;;;;;7.23;5.80;;;19.50;99.90;;;;;;10310583;28;20222;-70
2022/07/22 01:32:13;;;;;;;7.53;6.43;;;19.50;99.90;;;;;;10318667;28;20316;-70
2022/07/22 01:37:13;;;;;;;7.00;6.23;;;19.40;99.90;;;;;;10319278;28;20229;-70
2022/07/22 01:42:17;;;;;;;9.50;6.30;;;19.40;99.90;;;;;;10314242;28;20779;-69
2022/07/22 01:47:17;;;;;;;7.80;7.00;;;19.40;99.90;;;;;;10317079;28;20217;-70
2022/07/22 01:52:18;;;;;;;8.77;6.90;;;19.40;99.90;;;;;;10317610;28;20225;-70
2022/07/22 01:57:19;;;;;;;9.00;7.20;;;19.40;99.90;;;;;;10316435;28;20247;-70
2022/07/22 02:02:19;;;;;;;8.17;7.20;;;19.30;99.90;;;;;;10316846;28;20225;-70
2022/07/22 02:07:20;;;;;;;11.27;7.40;;;19.20;99.90;;;;;;10310148;28;20214;-70
2022/07/22 02:12:20;;;;;;;12.03;7.10;;;19.20;99.90;;;;;;10316525;28;20260;-70
2022/07/22 02:17:21;;;;;;;10.07;7.57;;;19.20;99.90;;;;;;10310534;28;20233;-71
2022/07/22 02:22:22;;;;;;;9.73;7.20;;;19.20;99.90;;;;;;10313829;28;20771;-70
2022/07/22 02:27:22;;;;;;;10.43;6.83;;;19.10;99.90;;;;;;10317806;28;20247;-70
2022/07/22 02:32:23;;;;;;;6.87;6.20;;;19.00;99.90;;;;;;10316618;28;20225;-70
2022/07/22 02:37:24;;;;;;;10.00;6.80;;;19.00;99.90;;;;;;10316320;28;20220;-70
2022/07/22 02:42:24;;;;;;;9.67;7.50;;;18.90;99.90;;;;;;10322428;28;20233;-70
2022/07/22 02:47:25;;;;;;;8.10;7.30;;;18.90;99.90;;;;;;10320015;28;20637;-70
2022/07/22 02:52:26;;;;;;;8.40;7.30;;;19.00;99.90;;;;;;10307705;28;20220;-70
2022/07/22 02:57:26;;;;;;;9.23;7.23;;;19.00;99.90;;;;;;10314390;28;20228;-71
2022/07/22 03:02:30;;;;;;;9.20;7.80;;;19.10;99.90;;;;;;10308843;28;20252;-70
2022/07/22 03:07:31;;;;;;;7.83;6.70;;;19.10;99.90;;;;;;10307505;28;20214;-71
2022/07/22 03:12:31;;;;;;;8.67;7.77;;;19.10;99.90;;;;;;10312336;28;20221;-70
2022/07/22 03:17:38;;;;;;;8.90;7.90;;;19.10;99.90;;;;;;10308848;28;20217;-70
2022/07/22 03:22:39;;;;;;;9.17;8.07;;;19.00;99.90;;;;;;10312107;28;20700;-71
2022/07/22 03:27:40;;;;;;;9.07;8.07;;;19.00;99.90;;;;;;10310106;28;20312;-70
2022/07/22 03:32:46;;;;;;;8.93;7.73;;;19.00;99.90;;;;;;10305850;28;20299;-71
2022/07/22 03:37:46;;;;;;;9.53;8.10;;;19.00;99.90;;;;;;10309692;28;20233;-70
2022/07/22 03:42:47;;;;;;;9.33;7.70;;;18.80;99.90;;;;;;10310691;28;20237;-71
2022/07/22 03:47:48;;;;;;;10.73;7.80;;;18.70;99.90;;;;;;10310499;28;20888;-70
2022/07/22 03:52:48;;;;;;;9.87;8.13;;;18.60;99.90;;;;;;10310054;28;20319;-70
2022/07/22 03:57:49;;;;;;;8.73;7.80;;;18.60;99.90;;;;;;10317036;28;20317;-69
2022/07/22 04:02:50;;;;;;;8.67;7.37;;;18.70;99.90;;;;;;10311060;28;20236;-71
2022/07/22 04:07:50;;;;;;;10.10;7.63;;;18.80;99.90;;;;;;10315753;28;20225;-71
2022/07/22 04:12:51;;;;;;;7.17;6.47;;;19.10;99.90;;;;;;10308670;28;20212;-69
2022/07/22 04:17:51;;;;;;;7.97;6.63;;;19.20;99.90;;;;;;10319698;28;20229;-69
2022/07/22 04:22:53;;;;;;;8.50;6.33;;;19.50;99.90;;;;;;10314393;28;20333;-68
2022/07/22 04:27:54;;;;;;;9.47;6.87;;;19.70;99.90;;;;;;10321131;28;20771;-68
2022/07/22 04:32:55;;;;;;;9.87;7.50;;;19.90;99.90;;;;;;10355192;28;20763;-68
2022/07/22 04:37:56;;;;;;;7.40;6.50;;;19.70;99.90;;;;;;10356409;28;20218;-68
2022/07/22 04:42:56;;;;;;;8.03;6.70;;;19.70;99.90;;;;;;10358711;28;20329;-68
2022/07/22 04:47:57;;;;;;;10.90;5.87;;;19.80;99.90;;;;;;10360760;28;20292;-68
2022/07/22 04:52:57;;;;;;;6.50;5.63;;;20.10;99.90;;;;;;10356002;28;20225;-69
2022/07/22 04:57:58;;;;;;;6.47;5.87;;;20.30;99.90;;;;;;10359638;28;20221;-69
2022/07/22 05:02:59;;;;;;;7.13;6.30;;;20.50;99.90;;;;;;10358288;28;20724;-71
2022/07/22 05:08:00;;;;;;;8.37;5.80;;;20.60;99.90;;;;;;10366259;28;20222;-71
2022/07/22 05:13:00;;;;;;;8.20;6.13;;;20.70;99.90;;;;;;10353027;28;20734;-71
2022/07/22 05:18:01;;;;;;;7.13;5.83;;;20.80;99.90;;;;;;10353961;28;20273;-71
2022/07/22 05:23:01;;;;;;;7.03;6.00;;;20.80;99.90;;;;;;10357637;28;20217;-70
2022/07/22 05:28:02;;;;;;;6.33;5.47;;;20.80;99.90;;;;;;10353313;28;20214;-70
2022/07/22 05:33:03;;;;;;;8.30;5.43;;;20.90;99.90;;;;;;10358908;28;20291;-70
2022/07/22 05:38:05;;;;;;;7.13;5.70;;;20.90;99.90;;;;;;10351666;28;20716;-70
2022/07/22 05:43:06;;;;;;;10.70;5.80;;;20.90;99.90;;;;;;10357857;28;20225;-70
2022/07/22 05:48:06;;;;;;;7.37;6.60;;;21.10;99.90;;;;;;10367100;28;20217;-70
2022/07/22 05:53:07;;;;;;;7.17;6.30;;;21.20;99.90;;;;;;10351298;28;20221;-70
2022/07/22 05:58:07;;;;;;;11.10;7.57;;;21.30;99.90;;;;;;10349833;28;20224;-70
2022/07/22 06:03:08;;;;;;;8.60;6.10;;;21.30;99.90;;;;;;10357886;28;20213;-71
2022/07/22 06:08:09;;;;;;;6.93;6.07;;;21.40;99.90;;;;;;10361507;28;20248;-70
2022/07/22 06:13:15;;;;;;;6.83;5.70;;;21.60;99.90;;;;;;10358183;28;20302;-71
2022/07/22 06:18:18;;;;;;;7.90;6.07;;;21.70;99.90;;;;;;10349174;28;20217;-70
2022/07/22 06:23:19;;;;;;;7.43;6.10;;;22.00;99.90;;;;;;10350522;28;20221;-71
2022/07/22 06:28:20;;;;;;;6.80;6.10;;;24.00;99.90;;;;;;10356955;28;20572;-71
2022/07/22 06:33:20;;;;;;;6.97;5.63;;;26.50;99.90;;;;;;10361426;28;20219;-71
2022/07/22 06:38:21;;;;;;;8.97;5.20;;;29.00;95.40;;;;;;10356500;28;20296;-71
2022/07/22 06:43:24;;;;;;;5.53;5.03;;;31.00;82.80;;;;;;10356374;28;20228;-72
2022/07/22 06:48:25;;;;;;;5.73;4.43;;;32.80;67.30;;;;;;10354558;28;20222;-71
2022/07/22 06:53:25;;;;;;;5.23;4.23;;;34.60;58.40;;;;;;10366323;28;20213;-72
2022/07/22 06:58:29;;;;;;;6.47;4.40;;;33.60;55.60;;;;;;10340975;28;20244;-71
2022/07/22 07:03:30;;;;;;;5.33;4.83;;;32.40;57.80;;;;;;10355635;28;20235;-72
2022/07/22 07:08:31;;;;;;;5.40;4.53;;;31.70;58.00;;;;;;10351007;28;20244;-73
2022/07/22 07:13:31;;;;;;;5.60;4.40;;;32.40;58.40;;;;;;10354219;28;20217;-72
2022/07/22 07:18:32;;;;;;;5.60;3.70;;;34.40;53.00;;;;;;10351279;28;20214;-72
2022/07/22 07:23:33;;;;;;;5.00;4.20;;;33.00;54.50;;;;;;10352975;28;20236;-70
2022/07/22 07:28:33;;;;;;;4.50;4.00;;;32.70;54.50;;;;;;10349292;28;20670;-70
2022/07/22 07:33:34;;;;;;;7.07;4.37;;;31.80;55.60;;;;;;10352431;28;20321;-70
2022/07/22 07:38:38;;;;;;;4.67;4.00;;;32.00;57.00;;;;;;10356915;28;20216;-70
2022/07/22 07:43:39;;;;;;;4.27;3.87;;;32.50;55.10;;;;;;10350483;28;20575;-70
2022/07/22 07:48:39;;;;;;;5.17;3.90;;;32.70;53.50;;;;;;10349719;28;20228;-70
2022/07/22 07:53:40;;;;;;;5.17;4.67;;;32.30;54.80;;;;;;10352651;28;20233;-71
2022/07/22 07:58:41;;;;;;;5.53;4.50;;;30.80;56.80;;;;;;10355460;28;20221;-71
2022/07/22 08:03:41;;;;;;;6.70;4.27;;;30.10;59.40;;;;;;10350167;28;20249;-71
2022/07/22 08:08:42;;;;;;;6.40;5.00;;;29.70;62.10;;;;;;10358887;28;20670;-71
2022/07/22 08:13:46;;;;;;;7.60;4.20;;;32.70;54.70;;;;;;10358278;28;20217;-72
2022/07/22 08:18:46;;;;;;;4.73;3.70;;;34.20;51.50;;;;;;10365842;28;20729;-71
2022/07/22 08:23:47;;;;;;;4.07;3.50;;;34.50;50.80;;;;;;10348684;28;20282;-71
2022/07/22 08:28:48;;;;;;;4.47;3.33;;;34.40;50.80;;;;;;10350647;28;20217;-71
2022/07/22 08:33:49;;;;;;;5.47;3.90;;;36.20;47.50;;;;;;10351076;28;20217;-71
2022/07/22 08:38:49;;;;;;;4.47;3.57;;;37.20;45.00;;;;;;10358034;28;20321;-71
2022/07/22 08:43:51;;;;;;;7.50;4.17;;;37.40;45.20;;;;;;10348679;28;20236;-72
2022/07/22 08:48:54;;;;;;;5.23;4.67;;;37.30;43.70;;;;;;10359711;28;20217;-71
2022/07/22 08:53:55;;;;;;;4.60;4.13;;;37.40;43.50;;;;;;10353677;28;20225;-71
2022/07/22 08:58:56;;;;;;;4.93;4.17;;;38.20;41.30;;;;;;10351064;28;20232;-70
2022/07/22 09:03:57;;;;;;;6.03;4.40;;;37.90;41.20;;;;;;10363851;28;20260;-71
2022/07/22 09:09:04;;;;;;;5.97;4.87;;;38.80;39.80;;;;;;10352933;28;20221;-71
2022/07/22 09:14:04;;;;;;;5.03;4.33;;;38.30;39.80;;;;;;10360020;28;20635;-71
2022/07/22 09:19:05;;;;;;;5.30;4.33;;;38.60;40.40;;;;;;10358998;28;20303;-71
2022/07/22 09:24:07;;;;;;;4.90;3.70;;;37.60;40.50;;;;;;10352681;28;20230;-71
2022/07/22 09:29:10;;;;;;;4.37;3.97;;;38.70;40.70;;;;;;10358330;28;20220;-71
2022/07/22 09:34:26;;;;;;;5.43;4.30;;;40.60;37.80;;;;;;10358341;28;20221;-72
2022/07/22 09:39:29;;;;;;;6.13;4.47;;;39.80;37.30;;;;;;10353438;28;20226;-71
2022/07/22 09:44:31;;;;;;;5.43;4.70;;;40.70;37.10;;;;;;10366030;28;20234;-72
2022/07/22 09:49:40;;;;;;;6.17;3.97;;;41.30;34.30;;;;;;10356241;28;20283;-72
2022/07/22 09:54:41;;;;;;;3.80;3.50;;;40.20;34.30;;;;;;10354682;28;20221;-71
2022/07/22 09:59:42;;;;;;;4.73;3.80;;;39.80;35.30;;;;;;10354262;28;20218;-72
2022/07/22 10:04:46;;;;;;;4.23;3.90;;;41.90;33.30;;;;;;10358484;28;20229;-72
2022/07/22 10:09:47;;;;;;;4.10;3.70;;;41.30;33.40;;;;;;10349907;28;20854;-71
2022/07/22 10:14:49;;;;;;;4.40;4.00;;;43.60;31.80;;;;;;10350502;28;20763;-70
2022/07/22 10:19:49;;;;;;;4.07;3.70;;;43.70;30.40;;;;;;10357880;28;20214;-72
2022/07/22 10:25:00;;;;;;;4.43;3.40;;;45.70;29.30;;;;;;10353667;28;20233;-71
2022/07/22 10:30:04;;;;;;;3.90;3.60;;;46.10;27.80;;;;;;10350137;28;20217;-70
2022/07/22 10:35:11;;;;;;;4.22;3.55;;;45.80;28.20;;;;;;10350084;28;20218;-71
2022/07/22 10:40:14;;;;;;;4.53;3.88;;;44.20;28.70;;;;;;10363914;28;20209;-71
2022/07/22 10:45:15;;;;;;;5.57;4.20;;;43.30;29.80;;;;;;10363576;28;20221;-70
2022/07/22 10:50:40;;;;;;;3.97;3.60;;;42.50;30.20;;;;;;10354269;28;20188;-71
2022/07/22 10:56:05;;;;;;;5.13;3.60;;;42.50;32.00;;;;;;10352720;28;20209;-71
2022/07/22 11:01:09;;;;;;;4.23;3.70;;;43.20;30.00;;;;;;10361683;28;20720;-71
2022/07/22 11:06:25;;;;;;;4.20;3.77;;;41.50;31.60;;;;;;10348464;28;20693;-71
2022/07/22 11:11:50;;;;;;;5.30;4.00;;;41.60;30.90;;;;;;10349924;28;20233;-72
2022/07/22 11:16:51;;;;;;;4.80;3.80;;;40.90;31.90;;;;;;10350665;28;20583;-71
2022/07/22 11:21:55;;;;;;;4.10;3.60;;;43.20;30.00;;;;;;10351803;28;20257;-71
2022/07/22 11:26:59;;;;;;;5.40;3.60;;;44.20;28.50;;;;;;10355128;28;20700;-72
2022/07/22 11:32:02;;;;;;;5.03;4.10;;;42.50;29.20;;;;;;10349240;28;20287;-72
2022/07/22 11:37:03;;;;;;;5.83;3.90;;;43.20;29.70;;;;;;10352178;28;20846;-71
2022/07/22 11:42:04;;;;;;;5.80;3.73;;;43.80;29.10;;;;;;10356400;28;20353;-70
2022/07/22 11:47:07;;;;;;;4.43;3.80;;;43.80;29.20;;;;;;10353874;28;20221;-72
2022/07/22 11:52:11;;;;;;;4.00;3.60;;;40.80;31.50;;;;;;10354839;28;20277;-70
2022/07/22 11:57:14;;;;;;;6.93;4.10;;;37.70;36.10;;;;;;10346215;28;20301;-71
2022/07/22 12:02:14;;;;;;;5.53;4.80;;;35.50;40.20;;;;;;10362347;28;20308;-71
2022/07/22 12:07:16;;;;;;;5.10;4.10;;;34.10;41.50;;;;;;10354620;28;20744;-70
2022/07/22 12:12:17;;;;;;;5.50;4.80;;;33.40;43.10;;;;;;10345676;28;20230;-70
2022/07/22 12:17:17;;;;;;;5.93;5.00;;;33.00;43.90;;;;;;10353557;28;20213;-71
2022/07/22 12:22:22;;;;;;;5.57;4.83;;;32.90;44.20;;;;;;10345595;28;20227;-69
2022/07/22 12:27:26;;;;;;;4.90;4.50;;;32.90;43.80;;;;;;10353404;28;20302;-70
2022/07/22 12:32:30;;;;;;;6.63;4.63;;;32.20;44.80;;;;;;10351485;28;20247;-70
2022/07/22 12:37:42;;;;;;;5.10;4.60;;;31.90;45.40;;;;;;10354157;28;20221;-70
2022/07/22 12:43:00;;;;;;;5.77;4.60;;;31.60;45.90;;;;;;10357741;28;20254;-71
2022/07/22 12:48:01;;;;;;;5.50;5.00;;;31.10;46.70;;;;;;10368036;28;20217;-72
2022/07/22 12:53:07;;;;;;;5.63;4.23;;;30.70;47.80;;;;;;10361151;28;20217;-70
2022/07/22 12:58:08;;;;;;;5.40;4.60;;;30.60;47.60;;;;;;10362664;28;20225;-71
2022/07/22 13:03:09;;;;;;;6.30;5.20;;;30.50;47.90;;;;;;10367374;28;20638;-71
2022/07/22 13:08:13;;;;;;;5.10;4.47;;;30.60;48.00;;;;;;10353830;28;20230;-72
2022/07/22 13:13:14;;;;;;;5.93;4.90;;;30.90;47.80;;;;;;10360627;28;20318;-71
2022/07/22 13:18:15;;;;;;;6.67;4.67;;;31.00;47.20;;;;;;10360418;28;20783;-71
2022/07/22 13:23:15;;;;;;;6.33;4.90;;;31.50;46.60;;;;;;10360814;28;20696;-71
2022/07/22 13:28:16;;;;;;;5.43;4.93;;;31.70;46.00;;;;;;10351491;28;20213;-71
2022/07/22 13:33:17;;;;;;;7.17;4.87;;;31.60;46.20;;;;;;10368540;28;20244;-71
2022/07/22 13:38:18;;;;;;;4.90;4.40;;;31.70;46.10;;;;;;10350446;28;20213;-72
2022/07/22 13:43:20;;;;;;;5.20;4.60;;;31.70;45.90;;;;;;10359313;28;20738;-72
2022/07/22 13:48:20;;;;;;;5.63;4.43;;;31.60;45.90;;;;;;10351166;28;20214;-71
2022/07/22 13:53:21;;;;;;;5.87;5.00;;;31.50;46.30;;;;;;10358868;28;20702;-70
2022/07/22 13:58:22;;;;;;;7.00;4.57;;;31.40;46.90;;;;;;10358507;28;20228;-71
2022/07/22 14:03:22;;;;;;;6.80;4.80;;;31.30;46.70;;;;;;10360473;28;20217;-71
2022/07/22 14:08:23;;;;;;;7.33;5.13;;;31.30;46.90;;;;;;10357678;28;20221;-70
2022/07/22 14:13:24;;;;;;;5.50;5.00;;;31.30;46.80;;;;;;10358468;28;20272;-71
2022/07/22 14:18:24;;;;;;;6.73;4.90;;;31.30;46.60;;;;;;10351181;28;20688;-70
2022/07/22 14:23:25;;;;;;;5.93;5.07;;;31.40;46.70;;;;;;10357430;28;20213;-70
2022/07/22 14:28:27;;;;;;;6.43;5.00;;;31.10;46.80;;;;;;10354083;28;20213;-71
2022/07/22 14:33:28;;;;;;;5.23;4.73;;;30.70;47.70;;;;;;10365723;28;20218;-72
2022/07/22 14:38:29;;;;;;;6.07;4.63;;;30.50;48.00;;;;;;10356953;28;20695;-71
2022/07/22 14:43:29;;;;;;;5.67;4.50;;;30.80;48.50;;;;;;10364184;28;20217;-71
2022/07/22 14:48:31;;;;;;;5.77;4.70;;;31.00;47.70;;;;;;10355541;28;20221;-71
2022/07/22 14:53:31;;;;;;;6.27;4.87;;;31.00;47.50;;;;;;10359575;28;20715;-72
2022/07/22 14:58:32;;;;;;;6.40;4.80;;;31.10;47.40;;;;;;10358418;28;20249;-71
2022/07/22 15:03:33;;;;;;;5.17;4.20;;;31.20;47.40;;;;;;10347748;28;21860;-71
2022/07/22 15:08:33;;;;;;;5.30;4.40;;;31.20;47.30;;;;;;10355620;28;20268;-70
2022/07/22 15:13:34;;;;;;;6.73;4.30;;;31.20;47.30;;;;;;10353304;28;20244;-70
2022/07/22 15:18:35;;;;;;;6.77;4.97;;;31.30;47.30;;;;;;10348940;28;20269;-70
2022/07/22 15:23:36;;;;;;;6.97;5.00;;;31.50;46.70;;;;;;10357315;28;20228;-71
2022/07/22 15:28:39;;;;;;;5.53;4.90;;;31.40;47.00;;;;;;10378286;28;20592;-70
2022/07/22 15:33:39;;;;;;;5.37;4.57;;;31.30;47.30;;;;;;10338338;28;20253;-72
2022/07/22 15:38:40;;;;;;;9.00;4.50;;;31.20;48.00;;;;;;10340866;28;20882;-71
2022/07/22 15:43:41;;;;;;;5.13;4.03;;;31.10;48.30;;;;;;10349771;28;20233;-71
2022/07/22 15:48:41;;;;;;;4.90;4.50;;;31.00;48.90;;;;;;10367130;28;20741;-71
2022/07/22 15:53:42;;;;;;;4.70;4.30;;;31.00;48.90;;;;;;10353905;28;20275;-71
2022/07/22 16:04:05;;;;;;;5.77;4.50;;;30.70;49.30;;;;;;10355697;28;20707;-72
2022/07/22 16:09:12;;;;;;;6.60;4.80;;;30.70;49.50;;;;;;10347204;28;20630;-71
2022/07/22 16:14:13;;;;;;;6.20;4.80;;;30.80;49.60;;;;;;10361956;28;20684;-71
2022/07/22 16:19:14;;;;;;;6.23;4.67;;;30.90;48.90;;;;;;10354162;28;20245;-70
2022/07/22 16:24:15;;;;;;;5.97;4.47;;;31.00;48.70;;;;;;10362017;28;20245;-71
2022/07/22 16:29:15;;;;;;;6.13;4.33;;;31.00;48.70;;;;;;10361975;28;20280;-71
2022/07/22 16:34:16;;;;;;;5.17;4.37;;;30.90;48.90;;;;;;10359751;28;20229;-70
2022/07/22 16:39:17;;;;;;;5.10;4.60;;;30.80;49.50;;;;;;10368660;28;20448;-70
2022/07/22 16:44:17;;;;;;;6.47;4.87;;;30.60;49.60;;;;;;10361782;28;20229;-71
2022/07/22 16:49:18;;;;;;;6.60;4.53;;;30.30;50.30;;;;;;10376389;28;20347;-71
2022/07/22 16:54:19;;;;;;;5.10;4.60;;;30.00;51.00;;;;;;10360403;28;20715;-71
2022/07/22 16:59:19;;;;;;;5.70;4.80;;;29.80;50.80;;;;;;10359131;28;20225;-71
2022/07/22 17:04:20;;;;;;;4.70;4.30;;;29.70;50.90;;;;;;10360791;28;20275;-71
2022/07/22 17:09:21;;;;;;;6.03;4.40;;;29.60;51.50;;;;;;10353312;28;20225;-71
2022/07/22 17:14:21;;;;;;;5.77;4.73;;;29.60;51.70;;;;;;10359709;28;20222;-71
2022/07/22 17:19:22;;;;;;;6.03;5.10;;;29.60;51.20;;;;;;10351893;28;20236;-72
2022/07/22 17:24:23;;;;;;;5.77;4.13;;;29.70;50.60;;;;;;10357697;28;20252;-72
2022/07/22 17:29:23;;;;;;;5.90;4.60;;;29.80;50.10;;;;;;10360256;28;20222;-71
2022/07/22 17:34:24;;;;;;;7.40;4.40;;;29.90;49.00;;;;;;10359663;28;20218;-71
2022/07/22 17:39:32;;;;;;;5.33;4.50;;;29.90;49.20;;;;;;10357675;28;20225;-71
2022/07/22 17:44:33;;;;;;;5.50;3.87;;;29.80;48.50;;;;;;10350994;28;20232;-72
2022/07/22 17:49:34;;;;;;;5.10;4.33;;;29.60;48.10;;;;;;10353270;28;20237;-71
2022/07/22 17:54:35;;;;;;;4.90;4.40;;;29.40;49.00;;;;;;10359763;28;20631;-70
2022/07/22 17:59:35;;;;;;;5.23;4.07;;;29.30;48.70;;;;;;10356057;28;20712;-71
2022/07/22 18:04:36;;;;;;;5.27;4.00;;;29.30;49.20;;;;;;10352150;28;20234;-71
2022/07/22 18:09:36;;;;;;;8.73;4.80;;;29.30;49.70;;;;;;10346014;28;20714;-71
2022/07/22 18:14:37;;;;;;;4.97;4.40;;;29.30;49.40;;;;;;10354880;28;20221;-72
2022/07/22 18:19:38;;;;;;;4.77;4.27;;;29.30;49.50;;;;;;10352981;28;20235;-71
2022/07/22 18:24:38;;;;;;;4.93;4.23;;;29.20;48.70;;;;;;10349483;28;20274;-70
2022/07/22 18:29:39;;;;;;;5.90;4.33;;;28.80;48.60;;;;;;10352591;28;20273;-72
2022/07/22 18:34:40;;;;;;;8.73;4.60;;;28.70;49.00;;;;;;10357954;28;20583;-70
2022/07/22 18:39:43;;;;;;;7.07;4.57;;;28.50;50.00;;;;;;10349085;28;20253;-71
2022/07/22 18:44:44;;;;;;;6.07;4.43;;;28.20;51.20;;;;;;10357680;28;20772;-72
2022/07/22 18:49:45;;;;;;;5.13;4.60;;;28.00;52.30;;;;;;10361255;28;20372;-71
2022/07/22 18:54:45;;;;;;;9.03;5.83;;;27.80;52.10;;;;;;10357111;28;20759;-70
2022/07/22 18:59:49;;;;;;;4.77;4.27;;;27.60;53.30;;;;;;10349681;28;20704;-69
2022/07/22 19:04:50;;;;;;;5.33;4.83;;;27.40;56.80;;;;;;10352449;28;20623;-68
2022/07/22 19:09:51;;;;;;;9.63;5.40;;;27.40;57.00;;;;;;10347235;28;20220;-68
2022/07/22 19:14:52;;;;;;;6.47;5.43;;;27.40;55.20;;;;;;10351451;28;20594;-69
2022/07/22 19:19:53;;;;;;;5.50;4.50;;;27.40;55.00;;;;;;10355992;28;20225;-68
2022/07/22 19:24:54;;;;;;;5.60;5.00;;;27.30;59.10;;;;;;10359365;28;20644;-68
2022/07/22 19:29:55;;;;;;;6.30;4.60;;;27.20;58.20;;;;;;10357013;28;20260;-69
2022/07/22 19:34:55;;;;;;;9.97;4.90;;;27.00;59.80;;;;;;10360709;28;20251;-68
2022/07/22 19:39:56;;;;;;;6.40;5.40;;;27.00;61.20;;;;;;10350521;28;20230;-68
2022/07/22 19:44:57;;;;;;;7.47;5.57;;;27.00;61.30;;;;;;10355422;28;20221;-68
2022/07/22 19:49:57;;;;;;;7.30;5.80;;;26.80;61.80;;;;;;10351538;28;20213;-67
2022/07/22 19:54:58;;;;;;;8.80;6.60;;;26.70;61.20;;;;;;10345118;28;20699;-70
2022/07/22 19:59:58;;;;;;;9.27;6.00;;;26.50;62.60;;;;;;10347821;28;20247;-68
2022/07/22 20:04:59;;;;;;;10.30;5.70;;;26.50;63.00;;;;;;10349115;28;20231;-67
2022/07/22 20:09:59;;;;;;;7.77;5.83;;;26.30;64.90;;;;;;10348187;28;20251;-68
2022/07/22 20:15:00;;;;;;;6.23;5.63;;;26.30;64.60;;;;;;10350637;28;20219;-67
2022/07/22 20:20:01;;;;;;;7.33;5.37;;;26.40;62.50;;;;;;10351754;28;20230;-68
2022/07/22 20:25:02;;;;;;;8.03;6.20;;;26.40;63.00;;;;;;10347237;28;20240;-68
2022/07/22 20:30:03;;;;;;;7.67;5.90;;;26.40;63.60;;;;;;10351475;28;20267;-68
2022/07/22 20:35:04;;;;;;;6.60;5.77;;;26.40;64.10;;;;;;10350742;28;20252;-67
2022/07/22 20:40:06;;;;;;;10.73;6.57;;;26.30;63.10;;;;;;10359771;28;20669;-68
2022/07/22 20:45:07;;;;;;;7.30;6.13;;;26.30;64.40;;;;;;10361176;28;20207;-68
2022/07/22 20:50:08;;;;;;;8.67;6.27;;;26.20;65.30;;;;;;10352727;28;20227;-68
2022/07/22 20:55:08;;;;;;;7.23;6.30;;;26.10;65.80;;;;;;10346024;28;20217;-68
2022/07/22 21:00:10;;;;;;;10.97;6.20;;;26.00;66.20;;;;;;10357446;28;20181;-67
2022/07/22 21:05:10;;;;;;;8.53;6.33;;;25.80;67.00;;;;;;10353197;28;20667;-68
2022/07/22 21:10:11;;;;;;;9.53;5.83;;;25.80;65.50;;;;;;10358223;28;20192;-68
2022/07/22 21:15:12;;;;;;;6.40;5.80;;;25.80;65.40;;;;;;10351211;28;20185;-67
2022/07/22 21:20:12;;;;;;;5.80;5.10;;;25.80;65.20;;;;;;10360676;28;20209;-69
2022/07/22 21:25:13;;;;;;;8.37;6.10;;;25.80;65.40;;;;;;10357549;28;20660;-68
2022/07/22 21:30:14;;;;;;;10.87;5.83;;;25.70;68.00;;;;;;10356746;28;20178;-68
2022/07/22 21:35:15;;;;;;;6.57;5.27;;;25.60;68.60;;;;;;10358603;28;20193;-68
2022/07/22 21:40:15;;;;;;;7.10;5.93;;;25.40;69.00;;;;;;10358495;28;20680;-66
2022/07/22 21:45:16;;;;;;;7.17;5.50;;;25.30;68.90;;;;;;10357394;28;20691;-68
2022/07/22 21:50:16;;;;;;;8.13;5.90;;;25.20;69.10;;;;;;10373966;28;20233;-67
2022/07/22 21:55:17;;;;;;;8.33;5.90;;;25.10;70.40;;;;;;10357531;28;20194;-68
2022/07/22 22:00:18;;;;;;;6.90;6.20;;;25.00;70.20;;;;;;10368412;28;20205;-67
2022/07/22 22:05:19;;;;;;;6.63;5.80;;;24.90;70.80;;;;;;10372854;28;20225;-67
2022/07/22 22:10:19;;;;;;;8.17;6.03;;;24.80;71.50;;;;;;10363120;28;20244;-72
2022/07/22 22:15:20;;;;;;;6.93;6.17;;;24.70;72.30;;;;;;10360662;28;20565;-72
2022/07/22 22:20:21;;;;;;;10.30;5.57;;;24.60;73.30;;;;;;10357524;28;20232;-70
2022/07/22 22:25:22;;;;;;;5.97;5.43;;;24.40;74.10;;;;;;10356761;28;20253;-71
2022/07/22 22:30:22;;;;;;;8.53;6.30;;;24.30;74.60;;;;;;10364488;28;20192;-69
2022/07/22 22:35:23;;;;;;;11.07;6.60;;;24.30;75.20;;;;;;10354578;28;20186;-70
2022/07/22 22:40:26;;;;;;;8.93;5.63;;;24.20;76.00;;;;;;10364520;28;20233;-70
2022/07/22 22:45:27;;;;;;;10.07;5.50;;;24.20;76.40;;;;;;10368830;28;20705;-69
2022/07/22 22:50:31;;;;;;;8.90;5.90;;;24.10;77.00;;;;;;10363816;28;20292;-70
2022/07/22 22:55:31;;;;;;;7.60;5.47;;;24.00;77.60;;;;;;10359782;28;20218;-70
2022/07/22 23:00:32;;;;;;;7.03;5.40;;;23.90;78.50;;;;;;10346020;28;20399;-70
2022/07/22 23:05:32;;;;;;;7.80;5.53;;;23.90;78.90;;;;;;10352391;28;20316;-71
2022/07/22 23:10:36;;;;;;;6.57;5.80;;;23.80;79.60;;;;;;10362738;28;20217;-70
2022/07/22 23:15:37;;;;;;;7.30;5.47;;;23.60;80.30;;;;;;10362301;28;20240;-70
2022/07/22 23:20:51;;;;;;;8.63;5.13;;;23.60;81.20;;;;;;10362194;28;20217;-70
2022/07/22 23:25:52;;;;;;;8.20;5.63;;;23.60;81.70;;;;;;10362382;28;20264;-70
2022/07/22 23:30:53;;;;;;;8.83;5.47;;;23.60;82.00;;;;;;10364438;28;20611;-70
2022/07/22 23:35:53;;;;;;;6.37;5.53;;;23.60;82.70;;;;;;10350125;28;20225;-70
2022/07/22 23:41:01;;;;;;;6.57;5.87;;;23.60;83.50;;;;;;10364015;28;20625;-70
2022/07/22 23:46:02;;;;;;;7.10;6.00;;;23.60;84.00;;;;;;10369136;28;20718;-70
2022/07/22 23:51:06;;;;;;;5.60;5.00;;;23.50;84.90;;;;;;10360926;28;20229;-70
2022/07/22 23:56:06;;;;;;;15.83;5.40;;;23.50;85.70;;;;;;10368394;28;20655;-70
